• Join FlightAware (Why Join?)
  • Login
  • US Flag 
03:20AM EDT


 

Airport Tracker/Info


-or-


 

Live Flight TrackerFlight Track Log ✈ EJA922 ✈ 09-Oct-2013 ✈ CYEG - KRNO

Flight Track Log - Related Links

Times and Time Zones

All times are in EDT time to prevent confusion due to time zone crossing. See the EJA922 flight status page for this flight to view local times or setup timezone preferences in your user account.

Time Position Orientation Groundspeed Altitude Reporting Facility
EDT Latitude Longitude Course Direction KTS MPH feet Rate Location/Type
03:01PM 53.2167 -113.7167 225° Southwest 210 242 10,400  Level Edmonton Center
03:02PM 53.1333 -113.6833 167° South 300 345 12,500 2,220 Climbing Edmonton Center
03:03PM 53.0333 -113.6667 174° South 360 414 14,900 2,400 Climbing Edmonton Center
03:04PM 52.9333 -113.6833 186° South 380 437 17,300 2,040 Climbing Edmonton Center
03:05PM 52.8167 -113.6833 180° South 410 472 19,000 1,920 Climbing Edmonton Center
03:06PM 52.3765 -113.7904 188° South  Level FlightAware Approximate
03:06PM 52.7000 -113.6833 180° South 430 495 21,200  Level Edmonton Center
03:07PM 52.5667 -113.7167 189° South 440 506 22,500 1,380 Climbing Edmonton Center
03:08PM 52.4333 -113.7333 184° South 460 529 24,000 1,560 Climbing Edmonton Center
03:09PM 52.3000 -113.7333 180° South 480 552 25,700 1,500 Climbing Edmonton Center
03:10PM 52.1667 -113.7667 189° South 490 564 27,000 1,200 Climbing Edmonton Center
03:11PM 52.0167 -113.8000 188° South 500 575 28,100 1,080 Climbing Edmonton Center
03:12PM 51.8833 -113.8000 180° South 510 587 29,200 1,200 Climbing Edmonton Center
03:13PM 51.7333 -113.8167 184° South 530 610 30,500 1,500 Climbing Edmonton Center
03:14PM 51.6000 -113.8333 184° South 530 610 32,300 1,800 Climbing Edmonton Center
03:15PM 51.4167 -113.8667 186° South 530 610 34,100 1,920 Climbing Edmonton Center
03:16PM 51.2833 -113.8833 184° South 530 610 36,200 2,400 Climbing Edmonton Center
03:17PM 51.1333 -113.9000 184° South 530 610 38,900 1,860 Climbing Edmonton Center
03:18PM 51.0167 -113.9333 190° South 520 598 40,000 540 Climbing Edmonton Center
03:19PM 50.8500 -114.0333 201° Southwest 550 633 40,000  Level Edmonton Center
03:20PM 50.7000 -114.1167 199° South 570 656 40,000  Level Edmonton Center
03:21PM 50.5500 -114.1833 196° South 580 667 40,000  Level Edmonton Center
03:22PM 50.3833 -114.2667 198° South 580 667 40,000  Level Edmonton Center
03:23PM 50.2500 -114.3333 198° South 580 667 40,000  Level Edmonton Center
03:24PM 50.0833 -114.4167 198° South 580 667 40,000  Level Edmonton Center
03:25PM 49.9333 -114.4833 196° South 580 667 40,000  Level Edmonton Center
03:26PM 49.7667 -114.5833 201° Southwest 580 667 40,000  Level Edmonton Center
03:27PM 49.6000 -114.6500 195° South 580 667 40,000  Level Edmonton Center
03:28PM 49.4500 -114.7167 196° South 580 667 40,000  Level Edmonton Center
03:29PM 49.3000 -114.8000 200° South 580 667 40,000  Level Edmonton Center
03:30PM 49.1500 -114.8667 196° South 580 667 40,000  Level Edmonton Center
03:31PM 48.9833 -114.9333 195° South 580 667 40,000 -60 Level Edmonton Center
03:32PM 48.8681 -114.9956 200° South 584 672 39,900 -60 Descending Seattle Center
03:33PM 48.7150 -115.0681 197° South 582 670 39,900  Level Seattle Center
03:34PM 48.5308 -115.1558 198° South 582 670 39,900  Level Seattle Center
03:35PM 48.3781 -115.2250 197° South 581 669 39,900  Level Seattle Center
03:36PM 48.2247 -115.2964 197° South 581 669 39,900  Level Seattle Center
03:37PM 48.0706 -115.3692 198° South 584 672 39,900  Level Seattle Center
03:38PM 47.9178 -115.4381 197° South 581 669 40,000  Climbing Seattle Center
03:39PM 47.7650 -115.5069 197° South 580 667 39,900 -60 Descending Seattle Center
03:40PM 47.6139 -115.5756 197° South 575 662 39,900  Level Seattle Center
03:41PM 47.4322 -115.6564 197° South 572 658 39,900  Level Seattle Center
03:42PM 47.2833 -115.7328 199° South 570 656 39,900  Level Seattle Center
03:43PM 47.1542 -115.7961 198° South 565 650 39,900  Level Seattle Center
03:44PM 47.0025 -115.8681 198° South 568 654 40,000  Climbing Seattle Center
03:45PM 46.8219 -115.9578 199° South 570 656 39,900 -60 Descending Seattle Center
03:46PM 46.6717 -116.0314 199° South 569 655 39,900  Level Seattle Center
03:47PM 46.5225 -116.1022 198° South 566 651 39,900  Level Seattle Center
03:48PM 46.3731 -116.1728 198° South 565 650 39,900  Level Seattle Center
03:49PM 46.2236 -116.2447 198° South 565 650 39,900  Level Seattle Center
03:50PM 46.0747 -116.3161 198° South 565 650 39,900  Level Seattle Center
03:51PM 45.9267 -116.3867 198° South 563 648 39,900  Level Seattle Center
03:52PM 45.7781 -116.4583 199° South 562 647 39,900  Level Seattle Center
03:54PM 45.6161 -116.5339 198° South 560 644 40,000  Climbing Seattle Center
03:55PM 45.4681 -116.6033 198° South 563 648 40,000  Level Seattle Center
03:56PM 45.3217 -116.6725 198° South 558 642 40,000  Level Seattle Center
03:57PM 45.1747 -116.7392 198° South 559 643 40,000  Level Seattle Center
03:58PM 45.0289 -116.8053 198° South 555 639 40,000  Level Seattle Center
03:59PM 44.8822 -116.8717 198° South 557 641 40,000  Level Seattle Center
03:59PM 44.7961 -116.9103 198° South 555 639 40,000  Level Salt Lake Center
04:00PM 44.6497 -116.9764 198° South 557 641 40,000  Level Salt Lake Center
04:01PM 44.5031 -117.0414 198° South 557 641 40,000  Level Salt Lake Center
04:02PM 44.3558 -117.1064 198° South 559 643 40,000  Level Salt Lake Center
04:03PM 44.1794 -117.1847 198° South 560 644 40,000  Level Salt Lake Center
04:04PM 44.0308 -117.2486 197° South 565 650 40,000  Level Salt Lake Center
04:05PM 43.8825 -117.3133 197° South 561 646 40,000  Level Salt Lake Center
04:06PM 43.7356 -117.3781 198° South 558 642 40,000  Level Salt Lake Center
04:07PM 43.5875 -117.4419 197° South 560 644 40,000  Level Salt Lake Center
04:08PM 43.4400 -117.5056 197° South 557 641 40,000  Level Salt Lake Center
04:09PM 43.2617 -117.5814 197° South 560 644 40,000  Level Salt Lake Center
04:10PM 43.1133 -117.6458 198° South 562 647 40,000  Level Salt Lake Center
04:11PM 42.9653 -117.7078 197° South 559 643 40,000  Level Salt Lake Center
04:12PM 42.8175 -117.7725 198° South 558 642 40,000  Level Salt Lake Center
04:14PM 42.6692 -117.8358 197° South 560 644 40,000  Level Salt Lake Center
04:15PM 42.5219 -117.9086 200° South 563 648 40,000  Level Salt Lake Center
04:16PM 42.3808 -117.9972 205° Southwest 562 647 40,000  Level Salt Lake Center
04:17PM 42.2092 -118.1011 204° Southwest 563 648 40,000  Level Salt Lake Center
04:18PM 42.0647 -118.1894 204° Southwest 563 648 40,000  Level Salt Lake Center
04:19PM 41.9283 -118.2711 204° Southwest 561 646 40,000  Level Salt Lake Center
04:20PM 41.7700 -118.3667 204° Southwest 559 643 40,000  Level Salt Lake Center
04:21PM 41.6342 -118.4469 204° Southwest 558 642 40,000 -60 Level Salt Lake Center
04:22PM 41.4983 -118.5278 204° Southwest 558 642 39,900 -540 Descending Salt Lake Center
04:23PM 41.3381 -118.6222 204° Southwest 562 647 38,900 -1,020 Descending Salt Lake Center
04:24PM 41.2017 -118.7025 204° Southwest 563 648 37,900 -1,020 Descending Salt Lake Center
04:25PM 41.0456 -118.7936 204° Southwest 552 635 36,800 -1,020 Descending Salt Lake Center
04:26PM 40.9092 -118.8614 201° Southwest 547 629 35,800 -1,020 Descending Salt Lake Center
04:26PM 40.8428 -118.8919 199° South 549 632 35,300 -1,020 Descending Oakland Center
04:27PM 40.6892 -118.9628 199° South 553 636 34,300 -1,080 Descending Oakland Center
04:28PM 40.5436 -119.0281 199° South 553 636 33,100 -1,680 Descending Oakland Center
04:29PM 40.4011 -119.0942 199° South 549 632 30,900 -2,700 Descending Oakland Center
04:30PM 40.2422 -119.1653 199° South 509 586 27,700 -2,880 Descending Oakland Center
04:31PM 40.1167 -119.2225 199° South 487 560 25,000 -2,700 Descending Oakland Center
04:32PM 39.9939 -119.2775 199° South 472 543 22,200 -2,880 Descending Oakland Center
04:34PM 39.8767 -119.3289 199° South 455 524 19,200 -3,000 Descending Oakland Center
04:35PM 39.7672 -119.3792 199° South 428 493 16,100 -2,160 Descending Oakland Center
04:36PM 39.6733 -119.4206 199° South 364 419 14,800 -1,980 Descending Oakland Center
04:37PM 39.5828 -119.4597 198° South 345 397 12,100 -1,380 Descending Oakland Center
04:38PM 39.4983 -119.4972 199° South 333 383 12,000 -60 Descending Oakland Center
04:39PM 39.4047 -119.5389 199° South 305 351 12,000 -420 Level Oakland Center
04:40PM 39.3244 -119.5736 199° South 305 351 11,200 -1,020 Descending Oakland Center
04:41PM 39.2483 -119.6069 199° South 299 344 10,000 -600 Descending Oakland Center
04:42PM 39.2017 -119.6633 223° Southwest 278 320 10,000 -540 Level Oakland Center
04:43PM 39.2072 -119.7431 275° West 254 292 9,000 -540 Descending Oakland Center
04:44PM 39.2567 -119.7714 336° Northwest 220 253 9,000 -240 Level Oakland Center
04:45PM 39.3189 -119.7692 North 213 245 8,600 -1,140 Descending Oakland Center
04:47PM 39.4167 -119.7667 North 198 228 5,900 -1,320 Descending Northern Cal TRACON
04:48PM 39.4667 -119.7667 360° North 131 151 4,900 -1,020 Descending Northern Cal TRACON
04:50PM 39.4833 -119.7667 333° Northwest  Level FlightAware Approximate
04:57PM 39.4991 -119.7681 333° Northwest  Level Estimated